createdAt,value
2017-08-26T00:00:23.180Z,8.47
2017-08-26T00:02:56.374Z,8.37
2017-08-26T00:05:23.993Z,8.10
2017-08-26T00:07:51.576Z,8.97
2017-08-26T00:10:19.183Z,8.10
2017-08-26T00:12:46.796Z,8.70
2017-08-26T00:15:14.376Z,8.70
2017-08-26T00:17:41.938Z,8.57
2017-08-26T00:20:09.529Z,8.43
2017-08-26T00:22:37.116Z,9.07
2017-08-26T00:25:04.739Z,8.77
2017-08-26T00:27:32.358Z,8.47
2017-08-26T00:29:59.928Z,8.70
2017-08-26T00:32:27.610Z,9.03
2017-08-26T00:34:55.219Z,8.70
2017-08-26T00:37:22.861Z,8.57
2017-08-26T00:39:50.570Z,9.53
2017-08-26T00:42:18.183Z,9.63
2017-08-26T00:44:45.813Z,9.33
2017-08-26T00:47:13.490Z,9.37
2017-08-26T00:49:41.079Z,10.17
2017-08-26T00:52:08.681Z,10.90
2017-08-26T00:54:36.331Z,10.80
2017-08-26T00:57:03.965Z,9.23
2017-08-26T00:59:31.606Z,10.00
2017-08-26T01:01:59.186Z,9.77
2017-08-26T01:04:26.850Z,9.80
2017-08-26T01:07:00.182Z,9.40
2017-08-26T01:09:27.780Z,9.30
2017-08-26T01:11:55.352Z,9.30
2017-08-26T01:14:23.004Z,10.20
2017-08-26T01:16:50.627Z,10.07
2017-08-26T01:19:18.276Z,10.87
2017-08-26T01:21:45.866Z,10.83
2017-08-26T01:24:13.455Z,11.30
2017-08-26T01:26:41.153Z,10.43
2017-08-26T01:29:08.745Z,11.10
2017-08-26T01:31:36.335Z,10.90
2017-08-26T01:34:04.013Z,10.80
2017-08-26T01:36:31.620Z,11.70
2017-08-26T01:38:59.209Z,10.97
2017-08-26T01:41:26.820Z,10.93
2017-08-26T01:43:54.430Z,11.53
2017-08-26T01:46:22.022Z,11.53
2017-08-26T01:48:49.648Z,10.83
2017-08-26T01:51:17.293Z,11.00
2017-08-26T01:53:44.891Z,10.93
2017-08-26T01:56:12.531Z,10.90
2017-08-26T01:58:40.137Z,11.77
2017-08-26T02:01:07.735Z,11.80
2017-08-26T02:03:35.394Z,12.00
2017-08-26T02:06:03.015Z,12.67
2017-08-26T02:08:30.623Z,11.13
2017-08-26T02:10:58.241Z,11.63
2017-08-26T02:13:25.885Z,11.93
2017-08-26T02:15:53.467Z,11.87
2017-08-26T02:18:21.073Z,12.63
2017-08-26T02:20:48.659Z,11.73
2017-08-26T02:23:16.335Z,13.17
2017-08-26T02:25:43.953Z,12.37
2017-08-26T02:28:11.543Z,12.93
2017-08-26T02:30:43.515Z,13.00
2017-08-26T02:33:11.111Z,14.00
2017-08-26T02:35:38.781Z,12.80
2017-08-26T02:38:06.426Z,13.00
2017-08-26T02:40:34.031Z,13.53
2017-08-26T02:43:01.757Z,14.33
2017-08-26T02:45:29.369Z,13.33
2017-08-26T02:47:57.001Z,13.20
2017-08-26T02:50:24.635Z,13.60
2017-08-26T02:52:52.223Z,12.13
2017-08-26T02:55:19.838Z,13.43
2017-08-26T02:57:54.167Z,12.27
2017-08-26T03:00:21.797Z,13.00
2017-08-26T03:02:49.379Z,11.80
2017-08-26T03:05:17.009Z,13.43
2017-08-26T03:07:44.776Z,11.90
2017-08-26T03:10:12.358Z,12.70
2017-08-26T03:12:39.936Z,12.57
2017-08-26T03:15:07.597Z,12.27
2017-08-26T03:17:35.180Z,12.30
2017-08-26T03:20:02.822Z,12.63
2017-08-26T03:22:30.422Z,13.40
2017-08-26T03:24:58.022Z,12.87
2017-08-26T03:27:25.655Z,12.37
2017-08-26T03:29:53.310Z,12.80
2017-08-26T03:32:24.333Z,13.83
2017-08-26T03:34:51.912Z,13.80
2017-08-26T03:37:19.550Z,14.67
2017-08-26T03:39:47.258Z,14.13
2017-08-26T03:42:14.852Z,13.00
2017-08-26T03:44:42.497Z,14.00
2017-08-26T03:47:10.098Z,14.53
2017-08-26T03:49:37.716Z,13.67
2017-08-26T03:52:05.344Z,14.17
2017-08-26T03:54:32.987Z,13.40
2017-08-26T03:57:00.663Z,13.97
2017-08-26T03:59:28.328Z,14.13
2017-08-26T04:01:55.911Z,13.63
2017-08-26T04:04:23.499Z,14.13
2017-08-26T04:06:51.117Z,15.10
2017-08-26T04:09:18.706Z,14.03
2017-08-26T04:11:46.302Z,13.70
2017-08-26T04:14:13.997Z,15.10
2017-08-26T04:16:41.589Z,15.17
2017-08-26T04:19:09.156Z,14.33
2017-08-26T04:21:36.784Z,15.07
2017-08-26T04:24:04.350Z,14.20
2017-08-26T04:26:31.977Z,14.43
2017-08-26T04:28:59.626Z,13.80
2017-08-26T04:31:27.332Z,13.27
2017-08-26T04:33:54.908Z,14.57
2017-08-26T04:36:22.568Z,13.80
2017-08-26T04:38:50.189Z,13.00
2017-08-26T04:41:17.759Z,14.10
2017-08-26T04:43:45.342Z,13.00
2017-08-26T04:46:13.018Z,12.80
2017-08-26T04:48:40.593Z,13.27
2017-08-26T04:51:08.289Z,14.33
2017-08-26T04:53:35.964Z,12.37
2017-08-26T04:56:03.592Z,13.20
2017-08-26T04:58:31.197Z,13.50
2017-08-26T05:00:58.827Z,12.80
2017-08-26T05:03:26.447Z,14.80
2017-08-26T05:05:54.049Z,12.63
2017-08-26T05:08:21.797Z,12.80
2017-08-26T05:10:49.505Z,12.97
2017-08-26T05:13:17.116Z,13.43
2017-08-26T05:15:44.888Z,12.97
2017-08-26T05:18:13.543Z,14.00
2017-08-26T05:20:41.175Z,12.60
2017-08-26T05:23:08.809Z,13.10
2017-08-26T05:25:36.413Z,11.57
2017-08-26T05:28:11.363Z,12.20
2017-08-26T05:30:38.943Z,12.30
2017-08-26T05:33:06.558Z,12.47
2017-08-26T05:35:44.155Z,12.90
2017-08-26T05:38:11.842Z,12.03
2017-08-26T05:40:39.478Z,13.80
2017-08-26T05:43:07.080Z,12.63
2017-08-26T05:45:35.818Z,11.40
2017-08-26T05:48:03.428Z,13.40
2017-08-26T05:50:43.660Z,12.97
2017-08-26T05:53:11.304Z,14.80
2017-08-26T05:55:38.930Z,16.20
2017-08-26T05:58:06.524Z,16.17
2017-08-26T06:00:39.182Z,21.57
2017-08-26T06:03:06.855Z,31.67
2017-08-26T06:05:34.468Z,29.50
2017-08-26T06:08:02.121Z,25.93
2017-08-26T06:10:42.915Z,37.30
2017-08-26T06:13:11.412Z,40.40
2017-08-26T06:15:39.023Z,31.50
2017-08-26T06:18:06.715Z,37.53
2017-08-26T06:20:39.275Z,36.47
2017-08-26T06:23:18.856Z,33.10
2017-08-26T06:25:46.488Z,31.27
2017-08-26T06:28:20.438Z,35.50
2017-08-26T06:30:48.917Z,41.00
2017-08-26T06:33:36.618Z,45.23
2017-08-26T06:36:04.382Z,44.67
2017-08-26T06:38:32.727Z,46.23
2017-08-26T06:41:00.326Z,50.33
2017-08-26T06:43:27.949Z,54.20
2017-08-26T06:45:57.900Z,52.23
2017-08-26T06:48:32.997Z,51.73
2017-08-26T06:51:09.412Z,55.00
2017-08-26T06:53:37.086Z,47.80
2017-08-26T06:56:04.686Z,51.93
2017-08-26T06:58:32.343Z,62.47
2017-08-26T07:00:59.951Z,62.60
2017-08-26T07:03:27.548Z,62.93
2017-08-26T07:05:55.289Z,61.90
2017-08-26T07:08:22.961Z,61.07
2017-08-26T07:10:50.557Z,58.40
2017-08-26T07:13:18.187Z,59.07
2017-08-26T07:15:45.794Z,57.83
2017-08-26T07:18:13.385Z,58.00
2017-08-26T07:20:40.971Z,53.60
2017-08-26T07:23:08.614Z,52.30
2017-08-26T07:25:36.209Z,51.97
2017-08-26T07:28:03.854Z,49.43
2017-08-26T07:30:31.604Z,47.67
2017-08-26T07:32:59.234Z,49.47
2017-08-26T07:35:26.843Z,48.40
2017-08-26T07:37:54.596Z,49.17
2017-08-26T07:40:22.276Z,45.77
2017-08-26T07:42:49.915Z,48.47
2017-08-26T07:45:17.598Z,46.50
2017-08-26T07:47:45.203Z,47.17
2017-08-26T07:50:12.816Z,44.33
2017-08-26T07:52:40.455Z,43.87
2017-08-26T07:55:08.934Z,47.10
2017-08-26T07:57:36.554Z,44.50
2017-08-26T08:00:04.275Z,44.60
2017-08-26T08:02:31.908Z,44.63
2017-08-26T08:04:59.565Z,41.27
2017-08-26T08:07:27.194Z,42.30
2017-08-26T08:09:59.872Z,42.70
2017-08-26T08:12:27.501Z,40.27
2017-08-26T08:14:55.096Z,42.07
2017-08-26T08:17:22.717Z,44.00
2017-08-26T08:19:50.412Z,41.40
2017-08-26T08:22:18.013Z,41.93
2017-08-26T08:24:45.660Z,42.10
2017-08-26T08:27:13.351Z,41.00
2017-08-26T08:29:40.950Z,38.97
2017-08-26T08:32:08.569Z,38.70
2017-08-26T08:34:36.195Z,37.40
2017-08-26T08:37:03.965Z,39.37
2017-08-26T08:39:31.604Z,37.60
2017-08-26T08:41:59.232Z,34.97
2017-08-26T08:44:26.814Z,36.93
2017-08-26T08:46:54.480Z,34.60
2017-08-26T08:49:22.874Z,35.17
2017-08-26T08:51:50.576Z,32.47
2017-08-26T08:54:18.226Z,35.33
2017-08-26T08:56:45.887Z,33.73
2017-08-26T08:59:13.530Z,34.47
2017-08-26T09:01:41.167Z,32.03
2017-08-26T09:04:12.806Z,31.30
2017-08-26T09:06:40.699Z,28.73
2017-08-26T09:09:08.326Z,30.50
2017-08-26T09:11:36.028Z,29.87
2017-08-26T09:14:03.788Z,29.90
2017-08-26T09:16:31.400Z,28.77
2017-08-26T09:18:59.016Z,29.07
2017-08-26T09:21:26.682Z,28.80
2017-08-26T09:23:54.391Z,28.80
2017-08-26T09:26:22.018Z,30.03
2017-08-26T09:28:49.667Z,30.47
2017-08-26T09:31:17.303Z,31.70
2017-08-26T09:33:44.899Z,30.57
2017-08-26T09:36:12.567Z,28.83
2017-08-26T09:38:40.184Z,31.23
2017-08-26T09:41:07.822Z,30.03
2017-08-26T09:43:35.492Z,29.27
2017-08-26T09:46:04.132Z,32.03
2017-08-26T09:48:31.844Z,30.37
2017-08-26T09:50:59.465Z,31.20
2017-08-26T09:53:27.108Z,30.00
2017-08-26T09:55:54.718Z,32.20
2017-08-26T09:58:22.346Z,31.10
2017-08-26T10:00:50.046Z,30.50
2017-08-26T10:03:17.699Z,29.70
2017-08-26T10:05:45.320Z,29.87
2017-08-26T10:08:12.933Z,30.20
2017-08-26T10:10:40.521Z,29.10
2017-08-26T10:13:08.155Z,28.73
2017-08-26T10:15:35.786Z,28.13
2017-08-26T10:18:03.420Z,27.27
2017-08-26T10:20:31.038Z,27.23
2017-08-26T10:22:58.615Z,26.70
2017-08-26T10:25:26.230Z,27.40
2017-08-26T10:27:53.820Z,28.30
2017-08-26T10:30:21.522Z,27.27
2017-08-26T10:32:49.253Z,28.47
2017-08-26T10:35:16.871Z,28.77
2017-08-26T10:37:44.483Z,28.10
2017-08-26T10:40:12.130Z,29.93
2017-08-26T10:42:39.815Z,28.43
2017-08-26T10:45:07.452Z,28.50
2017-08-26T10:47:35.111Z,28.67
2017-08-26T10:50:02.854Z,26.23
2017-08-26T10:52:30.522Z,29.13
2017-08-26T10:54:58.159Z,28.33
2017-08-26T10:57:25.798Z,28.20
2017-08-26T10:59:53.425Z,26.73
2017-08-26T11:02:21.018Z,29.30
2017-08-26T11:04:48.686Z,26.83
2017-08-26T11:07:16.471Z,25.50
2017-08-26T11:09:44.083Z,25.10
2017-08-26T11:12:11.752Z,27.50
2017-08-26T11:14:39.450Z,26.50
2017-08-26T11:17:07.058Z,24.47
2017-08-26T11:19:34.668Z,24.90
2017-08-26T11:22:09.421Z,23.03
2017-08-26T11:24:37.035Z,23.80
2017-08-26T11:27:04.713Z,24.93
2017-08-26T11:29:32.462Z,24.60
2017-08-26T11:32:00.119Z,25.20
2017-08-26T11:34:27.728Z,23.80
2017-08-26T11:36:55.451Z,23.43
2017-08-26T11:39:23.068Z,20.77
2017-08-26T11:41:50.694Z,19.97
2017-08-26T11:44:18.370Z,20.87
2017-08-26T11:46:46.085Z,22.60
2017-08-26T11:49:13.748Z,22.73
2017-08-26T11:51:41.361Z,20.60
2017-08-26T11:54:08.989Z,19.40
2017-08-26T11:56:36.606Z,18.60
2017-08-26T11:59:04.215Z,17.00
2017-08-26T12:01:32.567Z,15.33
2017-08-26T12:04:00.229Z,13.60
2017-08-26T12:06:27.843Z,16.30
2017-08-26T12:08:55.488Z,15.70
2017-08-26T12:11:23.132Z,14.53
2017-08-26T12:13:50.747Z,13.90
2017-08-26T12:16:18.378Z,15.93
2017-08-26T12:18:46.021Z,16.27
2017-08-26T12:21:13.695Z,15.80
2017-08-26T12:23:41.353Z,16.20
2017-08-26T12:26:08.962Z,15.40
2017-08-26T12:28:36.608Z,15.07
2017-08-26T12:31:07.450Z,14.20
2017-08-26T12:33:35.101Z,14.03
2017-08-26T12:36:02.713Z,17.80
2017-08-26T12:38:30.362Z,15.43
2017-08-26T12:40:58.089Z,13.37
2017-08-26T12:43:25.800Z,14.50
2017-08-26T12:45:53.417Z,13.83
2017-08-26T12:48:21.050Z,13.87
2017-08-26T12:50:48.678Z,14.20
2017-08-26T12:53:16.314Z,14.33
2017-08-26T12:55:43.911Z,13.70
2017-08-26T12:58:11.534Z,14.70
2017-08-26T13:00:39.134Z,14.03
2017-08-26T13:03:06.789Z,13.40
2017-08-26T13:05:34.396Z,15.23
2017-08-26T13:08:02.008Z,15.30
2017-08-26T13:10:30.653Z,16.80
2017-08-26T13:12:58.282Z,16.00
2017-08-26T13:15:25.888Z,17.37
2017-08-26T13:17:53.513Z,16.70
2017-08-26T13:20:21.142Z,16.83
2017-08-26T13:22:48.755Z,16.87
2017-08-26T13:25:16.390Z,17.10
2017-08-26T13:27:43.979Z,16.03
2017-08-26T13:30:11.694Z,17.23
2017-08-26T13:32:39.313Z,18.87
2017-08-26T13:35:06.934Z,16.87
2017-08-26T13:37:34.552Z,17.20
2017-08-26T13:40:02.188Z,18.33
2017-08-26T13:42:29.830Z,16.47
2017-08-26T13:44:57.447Z,16.33
2017-08-26T13:47:25.821Z,17.20
2017-08-26T13:49:53.506Z,17.23
2017-08-26T13:52:21.181Z,18.30
2017-08-26T13:54:48.760Z,17.87
2017-08-26T13:57:16.331Z,17.53
2017-08-26T13:59:43.969Z,15.33
2017-08-26T14:02:11.570Z,16.00
2017-08-26T14:04:39.141Z,14.60
2017-08-26T14:07:06.758Z,13.23
2017-08-26T14:09:34.412Z,13.93
2017-08-26T14:12:02.050Z,13.07
2017-08-26T14:14:29.664Z,12.73
2017-08-26T14:16:57.307Z,11.60
2017-08-26T14:19:24.911Z,11.17
2017-08-26T14:21:52.574Z,12.27
2017-08-26T14:24:20.159Z,10.10
2017-08-26T14:26:47.749Z,10.93
2017-08-26T14:29:15.403Z,12.07
2017-08-26T14:31:43.165Z,12.10
2017-08-26T14:34:10.839Z,16.40
2017-08-26T14:36:38.459Z,15.73
2017-08-26T14:39:06.114Z,15.00
2017-08-26T14:41:33.776Z,15.00
2017-08-26T14:44:01.363Z,15.03
2017-08-26T14:46:28.951Z,14.63
2017-08-26T14:48:56.635Z,12.77
2017-08-26T14:51:24.245Z,14.53
2017-08-26T14:53:51.840Z,14.57
2017-08-26T14:56:19.477Z,12.37
2017-08-26T14:58:47.082Z,13.93
2017-08-26T15:01:14.720Z,13.90
2017-08-26T15:03:42.350Z,13.10
2017-08-26T15:06:09.975Z,12.20
2017-08-26T15:08:37.570Z,15.00
2017-08-26T15:11:05.184Z,14.50
2017-08-26T15:13:32.843Z,15.13
2017-08-26T15:16:00.425Z,14.60
2017-08-26T15:18:28.042Z,16.60
2017-08-26T15:20:55.749Z,15.30
2017-08-26T15:23:23.436Z,14.23
2017-08-26T15:25:51.105Z,14.63
2017-08-26T15:28:18.747Z,14.67
2017-08-26T15:30:46.388Z,15.80
2017-08-26T15:33:13.994Z,15.30
2017-08-26T15:35:41.662Z,15.17
2017-08-26T15:38:10.157Z,14.37
2017-08-26T15:40:37.799Z,13.67
2017-08-26T15:43:05.444Z,14.27
2017-08-26T15:45:33.191Z,14.97
2017-08-26T15:48:00.771Z,13.30
2017-08-26T15:50:28.413Z,15.93
2017-08-26T15:52:56.194Z,16.23
2017-08-26T15:55:23.852Z,13.90
2017-08-26T15:57:51.477Z,13.77
2017-08-26T16:00:19.087Z,15.23
2017-08-26T16:02:46.710Z,14.97
2017-08-26T16:05:14.355Z,13.93
2017-08-26T16:07:41.968Z,11.77
2017-08-26T16:10:09.702Z,11.33
2017-08-26T16:12:37.347Z,11.90
2017-08-26T16:15:04.955Z,9.77
2017-08-26T16:17:32.535Z,13.10
2017-08-26T16:20:01.114Z,15.27
2017-08-26T16:22:28.738Z,16.10
2017-08-26T16:24:56.336Z,15.93
2017-08-26T16:27:24.129Z,15.87
2017-08-26T16:29:51.817Z,15.87
2017-08-26T16:32:19.422Z,15.50
2017-08-26T16:34:47.209Z,16.30
2017-08-26T16:37:14.934Z,15.03
2017-08-26T16:39:42.562Z,13.60
2017-08-26T16:42:10.202Z,12.93
2017-08-26T16:44:37.980Z,14.40
2017-08-26T16:47:05.592Z,14.90
2017-08-26T16:49:33.326Z,15.17
2017-08-26T16:52:00.954Z,15.40
2017-08-26T16:54:28.573Z,14.80
2017-08-26T16:56:56.188Z,14.33
2017-08-26T16:59:23.853Z,12.37
2017-08-26T17:01:51.450Z,13.47
2017-08-26T17:04:19.070Z,14.17
2017-08-26T17:06:46.653Z,16.43
2017-08-26T17:09:14.387Z,14.73
2017-08-26T17:11:41.974Z,13.97
2017-08-26T17:14:09.575Z,14.73
2017-08-26T17:16:37.235Z,13.60
2017-08-26T17:19:04.844Z,14.80
2017-08-26T17:21:32.455Z,12.60
2017-08-26T17:24:00.059Z,14.00
2017-08-26T17:26:27.692Z,15.60
2017-08-26T17:28:55.326Z,17.53
2017-08-26T17:31:22.952Z,19.70
2017-08-26T17:33:50.592Z,19.40
2017-08-26T17:36:18.217Z,19.63
2017-08-26T17:38:45.860Z,20.10
2017-08-26T17:41:13.465Z,20.87
2017-08-26T17:43:41.078Z,21.67
2017-08-26T17:46:08.699Z,21.10
2017-08-26T17:48:36.436Z,22.60
2017-08-26T17:51:04.112Z,21.33
2017-08-26T17:53:31.730Z,22.70
2017-08-26T17:55:59.339Z,23.10
2017-08-26T17:58:26.994Z,23.10
2017-08-26T18:00:54.638Z,21.63
2017-08-26T18:03:22.320Z,20.97
2017-08-26T18:05:50.843Z,22.33
2017-08-26T18:08:18.539Z,20.93
2017-08-26T18:10:46.176Z,23.20
2017-08-26T18:13:13.814Z,21.87
2017-08-26T18:15:41.468Z,22.70
2017-08-26T18:18:09.077Z,22.13
2017-08-26T18:20:36.811Z,22.87
2017-08-26T18:23:04.440Z,24.00
2017-08-26T18:25:32.042Z,24.60
2017-08-26T18:27:59.692Z,23.77
2017-08-26T18:30:28.077Z,25.27
2017-08-26T18:32:55.751Z,26.00
2017-08-26T18:35:23.528Z,24.70
2017-08-26T18:37:51.113Z,26.20
2017-08-26T18:40:18.798Z,25.50
2017-08-26T18:42:46.478Z,26.63
2017-08-26T18:45:14.091Z,25.70
2017-08-26T18:47:41.712Z,25.50
2017-08-26T18:50:10.780Z,25.60
2017-08-26T18:52:45.097Z,25.40
2017-08-26T18:55:13.445Z,25.30
2017-08-26T18:57:52.641Z,25.60
2017-08-26T19:05:53.795Z,24.50
2017-08-26T19:08:22.336Z,23.70
2017-08-26T19:10:50.402Z,24.23
2017-08-26T19:13:18.456Z,22.17
2017-08-26T19:15:46.226Z,22.90
2017-08-26T19:18:13.904Z,22.43
2017-08-26T19:20:41.587Z,24.10
2017-08-26T19:23:09.539Z,24.13
2017-08-26T19:25:37.206Z,22.17
2017-08-26T19:28:04.995Z,22.43
2017-08-26T19:30:32.754Z,22.97
2017-08-26T19:33:00.451Z,24.03
2017-08-26T19:35:28.076Z,23.20
2017-08-26T19:37:56.814Z,22.70
2017-08-26T19:40:25.401Z,25.33
2017-08-26T19:42:53.243Z,25.20
2017-08-26T19:45:21.591Z,26.67
2017-08-26T19:47:52.820Z,26.13
2017-08-26T19:50:20.424Z,26.43
2017-08-26T19:52:48.079Z,28.50
2017-08-26T19:55:15.826Z,28.07
2017-08-26T19:57:43.652Z,27.50
2017-08-26T20:00:12.872Z,27.33
2017-08-26T20:02:40.687Z,28.60
2017-08-26T20:05:08.470Z,27.97
2017-08-26T20:07:36.074Z,30.20
2017-08-26T20:10:03.725Z,29.60
2017-08-26T20:12:31.383Z,29.83
2017-08-26T20:14:59.074Z,26.80
2017-08-26T20:17:26.735Z,28.03
2017-08-26T20:19:54.344Z,27.50
2017-08-26T20:22:21.937Z,27.97
2017-08-26T20:24:49.572Z,29.23
2017-08-26T20:27:17.222Z,27.47
2017-08-26T20:29:44.903Z,29.33
2017-08-26T20:32:12.586Z,27.77
2017-08-26T20:34:40.193Z,27.30
2017-08-26T20:37:07.849Z,28.50
2017-08-26T20:39:35.479Z,28.37
2017-08-26T20:42:03.085Z,27.47
2017-08-26T20:44:30.817Z,29.30
2017-08-26T20:46:58.967Z,27.33
2017-08-26T20:49:26.740Z,28.50
2017-08-26T20:51:54.850Z,27.27
2017-08-26T20:54:22.677Z,27.50
2017-08-26T20:56:53.635Z,29.00
2017-08-26T20:59:21.470Z,27.90
2017-08-26T21:02:01.508Z,28.23
2017-08-26T21:04:29.310Z,28.80
2017-08-26T21:06:58.260Z,27.53
2017-08-26T21:09:25.965Z,27.60
2017-08-26T21:11:53.696Z,27.80
2017-08-26T21:14:21.409Z,29.43
2017-08-26T21:16:49.091Z,26.53
2017-08-26T21:19:16.750Z,26.90
2017-08-26T21:21:44.472Z,26.40
2017-08-26T21:24:12.173Z,26.30
2017-08-26T21:26:39.969Z,26.43
2017-08-26T21:29:07.878Z,27.43
2017-08-26T21:31:35.866Z,25.90
2017-08-26T21:34:03.699Z,26.93
2017-08-26T21:36:31.507Z,27.17
2017-08-26T21:38:59.440Z,25.00
2017-08-26T21:41:27.314Z,25.87
2017-08-26T21:43:55.039Z,26.73
2017-08-26T21:46:22.679Z,26.27
2017-08-26T21:48:50.339Z,25.90
2017-08-26T21:51:17.971Z,25.60
2017-08-26T21:53:45.615Z,27.00
2017-08-26T21:56:13.402Z,27.80
2017-08-26T21:58:41.085Z,27.57
2017-08-26T22:01:08.780Z,27.90
2017-08-26T22:03:36.514Z,26.90
2017-08-26T22:06:04.374Z,29.10
2017-08-26T22:08:32.154Z,27.70
2017-08-26T22:10:59.789Z,28.43
2017-08-26T22:13:27.597Z,26.43
2017-08-26T22:15:55.300Z,28.40
2017-08-26T22:18:23.199Z,29.30
2017-08-26T22:26:47.216Z,29.10
2017-08-26T22:29:14.909Z,29.77
2017-08-26T22:31:42.742Z,28.93
2017-08-26T22:34:11.286Z,31.93
2017-08-26T22:36:39.071Z,30.30
2017-08-26T22:39:06.798Z,31.27
2017-08-26T22:41:34.643Z,34.50
2017-08-26T22:44:02.349Z,35.40
2017-08-26T22:46:30.101Z,34.50
2017-08-26T22:48:57.812Z,37.30
2017-08-26T22:51:25.483Z,37.43
2017-08-26T22:53:53.185Z,38.13
2017-08-26T22:56:21.010Z,37.30
2017-08-26T22:58:48.668Z,38.00
2017-08-26T23:01:16.362Z,39.07
2017-08-26T23:03:44.052Z,38.80
2017-08-26T23:06:11.761Z,40.00
2017-08-26T23:08:39.609Z,39.03
2017-08-26T23:11:07.425Z,40.87
2017-08-26T23:13:35.113Z,39.20
2017-08-26T23:16:08.655Z,39.67
2017-08-26T23:18:36.417Z,41.00
2017-08-26T23:21:04.177Z,41.00
2017-08-26T23:23:31.939Z,40.93
2017-08-26T23:25:59.624Z,41.20
2017-08-26T23:28:27.309Z,38.40
2017-08-26T23:30:55.125Z,44.53
2017-08-26T23:33:22.835Z,41.03
2017-08-26T23:35:50.567Z,43.00
2017-08-26T23:38:18.367Z,41.87
2017-08-26T23:40:46.158Z,43.00
2017-08-26T23:43:13.902Z,43.57
2017-08-26T23:45:41.618Z,42.70
2017-08-26T23:48:09.262Z,45.37
2017-08-26T23:50:36.970Z,44.80
2017-08-26T23:53:04.644Z,45.13
2017-08-26T23:55:32.379Z,49.70
2017-08-26T23:58:00.046Z,48.10
